sensor_id;sensor_type;location;lat;lon;timestamp;temperature;humidity
31687;DHT22;18285;51.330;4.946;2023-05-07T00:03:43;23.80;48.80
31687;DHT22;18285;51.330;4.946;2023-05-07T00:27:54;23.80;48.70
31687;DHT22;18285;51.330;4.946;2023-05-07T00:52:06;23.70;48.50
31687;DHT22;18285;51.330;4.946;2023-05-07T01:16:17;23.70;48.40
31687;DHT22;18285;51.330;4.946;2023-05-07T01:40:28;23.80;48.30
31687;DHT22;18285;51.330;4.946;2023-05-07T02:04:39;23.70;48.10
31687;DHT22;18285;51.330;4.946;2023-05-07T02:28:49;23.70;47.90
31687;DHT22;18285;51.330;4.946;2023-05-07T02:53:01;23.70;47.70
31687;DHT22;18285;51.330;4.946;2023-05-07T03:17:12;23.70;47.60
31687;DHT22;18285;51.330;4.946;2023-05-07T03:41:22;23.70;47.50
31687;DHT22;18285;51.330;4.946;2023-05-07T04:05:33;23.70;47.30
31687;DHT22;18285;51.330;4.946;2023-05-07T04:29:44;23.70;47.30
31687;DHT22;18285;51.330;4.946;2023-05-07T04:53:57;23.70;47.20
31687;DHT22;18285;51.330;4.946;2023-05-07T05:18:08;23.70;47.30
31687;DHT22;18285;51.330;4.946;2023-05-07T05:42:18;23.70;47.60
31687;DHT22;18285;51.330;4.946;2023-05-07T06:06:29;23.70;47.80
31687;DHT22;18285;51.330;4.946;2023-05-07T06:30:41;23.70;48.10
31687;DHT22;18285;51.330;4.946;2023-05-07T06:54:52;23.70;48.60
31687;DHT22;18285;51.330;4.946;2023-05-07T07:19:03;23.70;48.70
31687;DHT22;18285;51.330;4.946;2023-05-07T07:43:13;23.70;49.00
31687;DHT22;18285;51.330;4.946;2023-05-07T08:07:24;23.80;49.00
31687;DHT22;18285;51.330;4.946;2023-05-07T08:31:35;23.80;49.30
31687;DHT22;18285;51.330;4.946;2023-05-07T08:55:46;23.80;49.70
31687;DHT22;18285;51.330;4.946;2023-05-07T09:20:04;23.80;49.50
31687;DHT22;18285;51.330;4.946;2023-05-07T09:44:15;23.90;49.50
31687;DHT22;18285;51.330;4.946;2023-05-07T10:08:26;23.90;49.40
31687;DHT22;18285;51.330;4.946;2023-05-07T10:32:46;23.90;49.10
31687;DHT22;18285;51.330;4.946;2023-05-07T10:57:35;23.90;48.80
31687;DHT22;18285;51.330;4.946;2023-05-07T11:21:46;24.00;48.70
31687;DHT22;18285;51.330;4.946;2023-05-07T11:46:09;23.90;49.00
31687;DHT22;18285;51.330;4.946;2023-05-07T12:10:20;24.00;49.20
31687;DHT22;18285;51.330;4.946;2023-05-07T12:34:31;23.90;49.20
31687;DHT22;18285;51.330;4.946;2023-05-07T12:58:42;23.90;49.10
31687;DHT22;18285;51.330;4.946;2023-05-07T13:22:52;23.90;49.10
31687;DHT22;18285;51.330;4.946;2023-05-07T13:47:03;24.00;49.00
31687;DHT22;18285;51.330;4.946;2023-05-07T14:11:14;24.00;49.20
31687;DHT22;18285;51.330;4.946;2023-05-07T14:35:24;24.00;49.30
31687;DHT22;18285;51.330;4.946;2023-05-07T14:59:36;24.00;49.70
31687;DHT22;18285;51.330;4.946;2023-05-07T15:23:48;24.00;49.80
31687;DHT22;18285;51.330;4.946;2023-05-07T15:47:58;24.00;49.80
31687;DHT22;18285;51.330;4.946;2023-05-07T16:12:09;24.00;51.30
31687;DHT22;18285;51.330;4.946;2023-05-07T16:36:21;24.10;51.10
31687;DHT22;18285;51.330;4.946;2023-05-07T17:00:32;24.00;50.80
31687;DHT22;18285;51.330;4.946;2023-05-07T17:24:43;24.00;50.90
31687;DHT22;18285;51.330;4.946;2023-05-07T17:48:56;23.90;51.30
31687;DHT22;18285;51.330;4.946;2023-05-07T18:13:07;23.90;51.20
31687;DHT22;18285;51.330;4.946;2023-05-07T18:37:18;23.90;51.30
31687;DHT22;18285;51.330;4.946;2023-05-07T19:01:29;23.80;51.80
31687;DHT22;18285;51.330;4.946;2023-05-07T19:25:39;23.80;51.80
31687;DHT22;18285;51.330;4.946;2023-05-07T19:49:50;23.80;51.20
31687;DHT22;18285;51.330;4.946;2023-05-07T20:14:01;23.90;50.80
31687;DHT22;18285;51.330;4.946;2023-05-07T20:38:13;23.90;50.50
31687;DHT22;18285;51.330;4.946;2023-05-07T21:02:24;24.00;50.30
31687;DHT22;18285;51.330;4.946;2023-05-07T21:26:35;24.00;50.20
31687;DHT22;18285;51.330;4.946;2023-05-07T21:50:45;24.00;50.00
31687;DHT22;18285;51.330;4.946;2023-05-07T22:14:56;24.00;49.70
31687;DHT22;18285;51.330;4.946;2023-05-07T22:39:07;24.00;49.90
31687;DHT22;18285;51.330;4.946;2023-05-07T23:03:19;24.10;50.00
31687;DHT22;18285;51.330;4.946;2023-05-07T23:27:30;24.00;50.00
31687;DHT22;18285;51.330;4.946;2023-05-07T23:51:41;24.00;49.80
